Homer City, Pennsylvania
Current Conditions -  °F | °C
As of 9:35 AM on Friday 28 Nov 2014 (Local Time) from KIDI Reporting Station
Broken Clouds Broken Clouds  
Wind Chill: 15°   Ceiling: 3800
Heat Index: 25°   Visibility: 10mi
Dew Point: 16°   Wind: 10mph
Humidity: 69%   Direction: 310°NW
Pressure: 30.3"   Gusts: 17mph
Location:  40.54°N, 79.16°W
Report Text: KIDI 281435Z AUTO 31009G15KT 10SM BKN038 M04/M09 A3030 RMK A01
Loading
Personal Weather Stations






























Interactive Weather Map New forecast layout! Learn more

10-Day Weather Forecast

Advertisements
Track Severe Weather on mobile